Capitol Logistics 3284




TGPY
Maurice Bishop International Airport
St. George's, GD
TJSJ
Luis Munoz Marin International Airport
San Juan, PR

Activity Log

Date Flight Route Aircraft Duration
04/16/2021 CPX3284 SV GEECE COY SF34 2h 29m

Route Details

Aircraft Information
Primary: Saab 340AF
Backup: Not Available
Route Data
Distance: 527nm
Duration: 2h 50m
Recm'd Route: SV GEECE COY
Origin Wx: TGPY 191100Z 09010KT 9999 FEW014CB 27/25 Q1016 TEMPO SHRA CB-SSE/S ADJ SHRA-SSE-S
Dest. Wx: TJSJ 191056Z 10006KT 9SM FEW029 SCT085 SCT110 27/23 A3010 RMK AO2 SLP191 HZ ALQDS T02670228
Notes: